Time;durP1;ratioP1;P1;durP2;ratioP2;P2;SDS_P1;SDS_P2;PMS_P1;PMS_P2;Temp;Humidity;BMP_temperature;BMP_pressure;BME280_temperature;BME280_humidity;BME280_pressure;Samples;Min_cycle;Max_cycle;Signal;HPM_P1;HPM_P2
2022/04/16 00:01:06;;;;;;;19.45;12.45;;;10.00;99.90;;;;;;5060515;28;36558;-52
2022/04/16 00:03:33;;;;;;;17.10;11.27;;;9.90;99.90;;;;;;5060640;28;36455;-52
2022/04/16 00:06:01;;;;;;;19.92;11.13;;;9.90;99.90;;;;;;5057597;28;38172;-48
2022/04/16 00:08:31;;;;;;;15.90;11.30;;;9.80;99.90;;;;;;5057766;28;38953;-51
2022/04/16 00:11:00;;;;;;;19.48;11.10;;;9.80;99.90;;;;;;5060331;28;37055;-58
2022/04/16 00:13:28;;;;;;;15.68;11.10;;;9.70;99.90;;;;;;5060620;28;36446;-58
2022/04/16 00:15:57;;;;;;;17.25;12.07;;;9.70;99.90;;;;;;5059374;28;38242;-50
2022/04/16 00:18:25;;;;;;;15.07;10.68;;;9.60;99.90;;;;;;5058910;28;36712;-51
2022/04/16 00:20:53;;;;;;;14.13;10.63;;;9.50;99.90;;;;;;5061434;28;37707;-52
2022/04/16 00:23:21;;;;;;;17.52;12.02;;;9.40;99.90;;;;;;5060777;28;38477;-51
2022/04/16 00:25:55;;;;;;;18.10;12.20;;;9.40;99.90;;;;;;5060765;28;38963;-51
2022/04/16 00:28:22;;;;;;;17.30;11.75;;;9.40;99.90;;;;;;5060929;28;37340;-50
2022/04/16 00:30:50;;;;;;;18.88;12.13;;;9.30;99.90;;;;;;5061594;28;37552;-53
2022/04/16 00:33:18;;;;;;;17.85;12.02;;;9.30;99.90;;;;;;5060633;28;37345;-50
2022/04/16 00:35:46;;;;;;;19.17;11.75;;;9.20;99.90;;;;;;5060378;28;38385;-51
2022/04/16 00:38:14;;;;;;;20.52;12.35;;;9.10;99.90;;;;;;5060286;28;38326;-49
2022/04/16 00:40:42;;;;;;;16.83;12.13;;;9.00;99.90;;;;;;5061097;28;37379;-50
2022/04/16 00:43:21;;;;;;;18.23;12.43;;;8.90;99.90;;;;;;5060583;28;37311;-51
2022/04/16 00:45:49;;;;;;;17.00;11.50;;;8.80;99.90;;;;;;5061356;28;38135;-51
2022/04/16 00:48:17;;;;;;;18.17;12.80;;;8.80;99.90;;;;;;5060553;28;39345;-52
2022/04/16 00:50:44;;;;;;;17.35;12.00;;;8.70;99.90;;;;;;5060545;28;35590;-58
2022/04/16 00:53:13;;;;;;;20.75;12.40;;;8.70;99.90;;;;;;5061507;28;37121;-58
2022/04/16 00:55:40;;;;;;;18.42;12.27;;;8.70;99.90;;;;;;5061271;28;39229;-58
2022/04/16 00:58:10;;;;;;;16.20;11.65;;;8.60;99.90;;;;;;5061084;28;37999;-58
2022/04/16 01:00:37;;;;;;;21.83;12.07;;;8.60;99.90;;;;;;5061225;28;36921;-58
2022/04/16 01:03:06;;;;;;;16.80;11.63;;;8.60;99.90;;;;;;5060668;28;37577;-58
2022/04/16 01:05:35;;;;;;;18.17;12.07;;;8.60;99.90;;;;;;5059522;28;38522;-58
2022/04/16 01:08:04;;;;;;;18.90;12.52;;;8.60;99.90;;;;;;5059816;28;37900;-58
2022/04/16 01:10:33;;;;;;;16.88;11.23;;;8.50;99.90;;;;;;5060932;28;35404;-58
2022/04/16 01:13:03;;;;;;;20.10;13.18;;;8.60;99.90;;;;;;5060472;28;36357;-58
2022/04/16 01:15:34;;;;;;;17.38;12.00;;;8.50;99.90;;;;;;5061073;28;38758;-51
2022/04/16 01:18:03;;;;;;;18.33;12.18;;;8.50;99.90;;;;;;5061263;28;37793;-59
2022/04/16 01:20:35;;;;;;;18.27;12.43;;;8.40;99.90;;;;;;5060869;28;36901;-58
2022/04/16 01:23:04;;;;;;;17.88;11.23;;;8.40;99.90;;;;;;5061190;28;38291;-52
2022/04/16 01:25:33;;;;;;;16.83;11.40;;;8.50;99.90;;;;;;5060542;28;37740;-49
2022/04/16 01:28:01;;;;;;;20.33;13.18;;;8.50;99.90;;;;;;5060885;28;36684;-51
2022/04/16 01:30:29;;;;;;;17.75;11.80;;;8.40;99.90;;;;;;5061327;28;37997;-58
2022/04/16 01:32:59;;;;;;;18.00;12.13;;;8.40;99.90;;;;;;5059845;28;37156;-58
2022/04/16 01:35:27;;;;;;;20.45;12.70;;;8.40;99.90;;;;;;5058857;28;38120;-58
2022/04/16 01:37:54;;;;;;;20.33;13.15;;;8.40;99.90;;;;;;5060284;28;38069;-51
2022/04/16 01:40:25;;;;;;;16.60;11.38;;;8.40;99.90;;;;;;5060217;28;37483;-50
2022/04/16 01:42:56;;;;;;;17.10;13.07;;;8.50;99.90;;;;;;5059321;28;38094;-58
2022/04/16 01:45:24;;;;;;;18.27;12.65;;;8.50;99.90;;;;;;5060358;28;36975;-58
2022/04/16 01:47:51;;;;;;;17.77;12.10;;;8.40;99.90;;;;;;5060773;28;37654;-58
2022/04/16 01:50:19;;;;;;;19.27;13.68;;;8.50;99.90;;;;;;5060349;28;36599;-49
2022/04/16 01:52:47;;;;;;;18.70;12.73;;;8.50;99.90;;;;;;5060565;28;40051;-49
2022/04/16 01:55:15;;;;;;;19.35;13.55;;;8.50;99.90;;;;;;5060217;28;38643;-51
2022/04/16 01:57:44;;;;;;;18.08;12.70;;;8.50;99.90;;;;;;5059155;28;36554;-52
2022/04/16 02:00:14;;;;;;;20.55;14.25;;;8.50;99.90;;;;;;5059670;28;38203;-51
2022/04/16 02:02:43;;;;;;;24.27;15.40;;;8.40;99.90;;;;;;5060483;28;36211;-52
2022/04/16 02:05:11;;;;;;;21.25;13.88;;;8.40;99.90;;;;;;5060098;28;38231;-52
2022/04/16 02:07:41;;;;;;;19.50;14.40;;;8.40;99.90;;;;;;5058569;28;39716;-50
2022/04/16 02:10:11;;;;;;;23.15;13.98;;;8.30;99.90;;;;;;5060360;28;36922;-58
2022/04/16 02:12:39;;;;;;;25.55;15.60;;;8.30;99.90;;;;;;5059517;28;37474;-52
2022/04/16 02:15:09;;;;;;;24.58;15.85;;;8.30;99.90;;;;;;5060005;28;39402;-58
2022/04/16 02:17:37;;;;;;;22.90;15.73;;;8.30;99.90;;;;;;5060583;28;37865;-58
2022/04/16 02:20:06;;;;;;;23.52;15.65;;;8.30;99.90;;;;;;5058336;28;36257;-58
2022/04/16 02:22:44;;;;;;;21.30;15.15;;;8.30;99.90;;;;;;5059537;28;38084;-57
2022/04/16 02:25:13;;;;;;;22.58;16.25;;;8.30;99.90;;;;;;5059395;28;38926;-52
2022/04/16 02:27:41;;;;;;;21.08;13.95;;;8.30;99.90;;;;;;5058869;28;38758;-50
2022/04/16 02:30:14;;;;;;;23.10;15.70;;;8.40;99.90;;;;;;5057831;28;37586;-50
2022/04/16 02:32:44;;;;;;;22.80;16.10;;;8.30;99.90;;;;;;5058642;28;37212;-48
2022/04/16 02:35:16;;;;;;;22.90;16.10;;;8.30;99.90;;;;;;5058723;28;38620;-51
2022/04/16 02:37:44;;;;;;;21.23;14.98;;;8.30;99.90;;;;;;5057916;28;37737;-59
2022/04/16 02:40:13;;;;;;;21.67;15.98;;;8.30;99.90;;;;;;5058619;28;37362;-51
2022/04/16 02:42:42;;;;;;;28.35;16.48;;;8.30;99.90;;;;;;5057508;28;37594;-52
2022/04/16 02:47:58;;;;;;;24.02;16.48;;;8.30;99.90;;;;;;5059223;28;40310;-58
2022/04/16 02:50:27;;;;;;;23.65;15.75;;;8.30;99.90;;;;;;5058809;28;35635;-58
2022/04/16 02:52:55;;;;;;;25.45;16.42;;;8.30;99.90;;;;;;5059923;28;37378;-51
2022/04/16 02:55:23;;;;;;;20.75;15.65;;;8.30;99.90;;;;;;5059310;28;37080;-58
2022/04/16 02:57:50;;;;;;;22.10;15.88;;;8.40;99.90;;;;;;5058849;28;38040;-58
2022/04/16 03:00:20;;;;;;;24.52;16.38;;;8.40;99.90;;;;;;5058764;28;37476;-58
2022/04/16 03:02:49;;;;;;;23.50;16.17;;;8.40;99.90;;;;;;5058628;28;37468;-58
2022/04/16 03:05:19;;;;;;;20.35;15.43;;;8.50;99.90;;;;;;5059586;28;39550;-58
2022/04/16 03:07:47;;;;;;;20.48;14.98;;;8.60;99.90;;;;;;5058115;28;38028;-50
2022/04/16 03:10:15;;;;;;;20.35;14.23;;;8.70;99.90;;;;;;5058254;28;36662;-48
2022/04/16 03:12:45;;;;;;;22.35;16.25;;;8.80;99.90;;;;;;5058118;28;36274;-52
2022/04/16 03:18:00;;;;;;;20.48;15.02;;;9.00;99.90;;;;;;5059560;28;39119;-52
2022/04/16 03:20:29;;;;;;;18.42;14.60;;;9.00;99.90;;;;;;5058654;28;37278;-51
2022/04/16 03:22:57;;;;;;;21.02;15.70;;;9.10;99.90;;;;;;5058182;28;38272;-52
2022/04/16 03:25:25;;;;;;;23.55;15.55;;;9.10;99.90;;;;;;5058386;28;39489;-50
2022/04/16 03:27:53;;;;;;;22.85;15.43;;;9.20;99.90;;;;;;5058339;28;38064;-51
2022/04/16 03:30:23;;;;;;;21.60;15.95;;;9.20;99.90;;;;;;5057241;28;35650;-51
2022/04/16 03:32:51;;;;;;;25.55;17.00;;;9.20;99.90;;;;;;5054872;28;37683;-51
2022/04/16 03:35:22;;;;;;;22.85;17.98;;;9.30;99.90;;;;;;5055952;28;39393;-50
2022/04/16 03:37:50;;;;;;;23.90;18.65;;;9.30;99.90;;;;;;5057331;28;38303;-58
2022/04/16 03:40:19;;;;;;;23.92;17.25;;;9.30;99.90;;;;;;5056100;28;36010;-53
2022/04/16 03:42:47;;;;;;;24.38;18.83;;;9.30;99.90;;;;;;5055985;28;38132;-53
2022/04/16 03:45:20;;;;;;;25.27;18.63;;;9.30;99.90;;;;;;5058672;28;36905;-51
2022/04/16 03:47:48;;;;;;;24.63;18.55;;;9.30;99.90;;;;;;5059538;28;37654;-58
2022/04/16 03:50:16;;;;;;;29.15;20.95;;;9.30;99.90;;;;;;5058786;28;36875;-58
2022/04/16 03:52:46;;;;;;;25.23;18.75;;;9.30;99.90;;;;;;5059318;28;39531;-58
2022/04/16 04:00:45;;;;;;;25.83;18.90;;;9.30;99.90;;;;;;5061335;28;39218;-51
2022/04/16 04:03:12;;;;;;;25.75;18.55;;;9.30;99.90;;;;;;5061437;28;38232;-50
2022/04/16 04:05:40;;;;;;;28.45;21.10;;;9.30;99.90;;;;;;5060866;28;38592;-53
2022/04/16 04:08:10;;;;;;;25.50;19.80;;;9.30;99.90;;;;;;5061348;28;36794;-51
2022/04/16 04:10:39;;;;;;;28.20;21.42;;;9.40;99.90;;;;;;5061751;28;38679;-58
2022/04/16 04:13:06;;;;;;;28.92;21.70;;;9.30;99.90;;;;;;5060087;28;38070;-58
2022/04/16 04:15:34;;;;;;;28.38;21.45;;;9.30;99.90;;;;;;5060985;28;38663;-52
2022/04/16 04:18:02;;;;;;;28.00;21.70;;;9.30;99.90;;;;;;5060990;28;38506;-58
2022/04/16 04:20:29;;;;;;;30.33;22.58;;;9.30;99.90;;;;;;5061385;28;36885;-58
2022/04/16 04:22:57;;;;;;;33.78;23.40;;;9.30;99.90;;;;;;5061441;28;37660;-57
2022/04/16 04:25:26;;;;;;;32.53;23.40;;;9.30;99.90;;;;;;5061309;28;38452;-58
2022/04/16 04:27:53;;;;;;;30.73;23.00;;;9.20;99.90;;;;;;5061187;28;38277;-58
2022/04/16 04:30:24;;;;;;;30.25;22.40;;;9.30;99.90;;;;;;5061738;28;36588;-58
2022/04/16 04:32:51;;;;;;;35.50;24.45;;;9.20;99.90;;;;;;5061132;28;37702;-57
2022/04/16 04:35:19;;;;;;;33.03;24.13;;;9.20;99.90;;;;;;5060728;28;39652;-58
2022/04/16 04:37:46;;;;;;;34.88;25.08;;;9.20;99.90;;;;;;5059529;28;35995;-51
2022/04/16 04:40:14;;;;;;;34.35;24.67;;;9.20;99.90;;;;;;5059406;28;38791;-52
2022/04/16 04:42:46;;;;;;;35.58;24.85;;;9.20;99.90;;;;;;5058904;28;38483;-58
2022/04/16 04:45:15;;;;;;;31.77;23.55;;;8.80;99.90;;;;;;5060061;28;38152;-50
2022/04/16 04:47:43;;;;;;;34.50;23.45;;;9.10;99.90;;;;;;5060486;28;38372;-57
2022/04/16 04:50:11;;;;;;;34.70;25.20;;;9.10;99.90;;;;;;5058477;28;36888;-58
2022/04/16 04:52:40;;;;;;;34.15;24.20;;;9.00;99.90;;;;;;5060328;28;37588;-58
2022/04/16 04:55:10;;;;;;;35.28;25.35;;;9.00;99.90;;;;;;5060954;28;38268;-58
2022/04/16 04:57:38;;;;;;;34.72;25.20;;;9.10;99.90;;;;;;5058915;28;38343;-58
2022/04/16 05:00:09;;;;;;;35.92;25.42;;;9.00;99.90;;;;;;5059052;28;38140;-58
2022/04/16 05:02:44;;;;;;;31.80;23.90;;;9.00;99.90;;;;;;5059408;28;37519;-51
2022/04/16 05:05:11;;;;;;;36.63;26.10;;;9.00;99.90;;;;;;5059220;28;37463;-58
2022/04/16 05:07:39;;;;;;;34.25;23.85;;;9.00;99.90;;;;;;5058081;28;39011;-51
2022/04/16 05:10:08;;;;;;;34.85;25.13;;;9.00;99.90;;;;;;5058918;28;36735;-58
2022/04/16 05:12:35;;;;;;;35.05;25.10;;;9.00;99.90;;;;;;5060198;28;38925;-58
2022/04/16 05:15:03;;;;;;;39.38;26.38;;;9.00;99.90;;;;;;5060847;28;40679;-58
2022/04/16 05:17:32;;;;;;;34.15;24.95;;;9.00;99.90;;;;;;5060504;28;37529;-58
2022/04/16 05:20:03;;;;;;;34.25;25.42;;;9.00;99.90;;;;;;5060899;28;36537;-58
2022/04/16 05:22:31;;;;;;;36.15;25.65;;;9.00;99.90;;;;;;5060477;28;37811;-58
2022/04/16 05:24:59;;;;;;;38.90;24.15;;;9.00;99.90;;;;;;5057660;28;38233;-48
2022/04/16 05:27:26;;;;;;;32.10;24.25;;;9.00;99.90;;;;;;5058120;28;37820;-49
2022/04/16 05:30:06;;;;;;;41.13;24.70;;;9.00;99.90;;;;;;5059712;28;36321;-58
2022/04/16 05:32:40;;;;;;;36.55;25.38;;;9.00;99.90;;;;;;5060263;28;36278;-58
2022/04/16 05:35:09;;;;;;;32.55;23.83;;;9.10;99.90;;;;;;5059521;28;39104;-50
2022/04/16 05:37:37;;;;;;;36.65;23.95;;;9.10;99.90;;;;;;5059202;28;37818;-49
2022/04/16 05:40:06;;;;;;;29.45;22.23;;;9.20;99.90;;;;;;5059454;28;36941;-50
2022/04/16 05:42:40;;;;;;;36.05;24.08;;;9.20;99.90;;;;;;5057972;28;37796;-58
2022/04/16 05:45:09;;;;;;;30.25;21.58;;;9.20;99.90;;;;;;5057147;28;39345;-58
2022/04/16 05:47:38;;;;;;;27.95;20.48;;;9.30;99.90;;;;;;5058254;28;38079;-51
2022/04/16 05:50:06;;;;;;;31.05;20.05;;;9.30;99.90;;;;;;5059662;28;37243;-52
2022/04/16 05:52:34;;;;;;;26.73;19.48;;;9.20;99.90;;;;;;5058389;28;37633;-51
2022/04/16 05:55:02;;;;;;;30.23;20.02;;;9.20;99.90;;;;;;5058717;28;40467;-52
2022/04/16 05:57:31;;;;;;;26.95;19.65;;;9.20;99.90;;;;;;5057709;28;37858;-51
2022/04/16 05:59:58;;;;;;;27.88;17.10;;;9.20;99.90;;;;;;5058852;28;36750;-53
2022/04/16 06:02:26;;;;;;;24.63;17.55;;;9.20;99.90;;;;;;5059266;28;39189;-51
2022/04/16 06:04:55;;;;;;;25.45;18.25;;;9.30;99.90;;;;;;5059696;28;41024;-52
2022/04/16 06:07:24;;;;;;;25.13;16.70;;;9.30;99.90;;;;;;5059344;28;38079;-58
2022/04/16 06:09:52;;;;;;;23.40;15.90;;;9.40;99.90;;;;;;5060427;28;35679;-58
2022/04/16 06:12:19;;;;;;;24.13;16.73;;;9.30;99.90;;;;;;5058515;28;38105;-58
2022/04/16 06:14:51;;;;;;;23.08;13.80;;;9.40;99.90;;;;;;5057397;28;37997;-58
2022/04/16 06:17:18;;;;;;;22.50;14.40;;;9.40;99.90;;;;;;5058174;28;37431;-58
2022/04/16 06:19:46;;;;;;;22.23;14.50;;;9.40;99.70;;;;;;5058020;28;36990;-59
2022/04/16 06:22:15;;;;;;;18.98;13.00;;;9.40;99.40;;;;;;5058256;28;37736;-53
2022/04/16 06:24:42;;;;;;;23.90;15.40;;;9.40;99.20;;;;;;5058075;28;37969;-53
2022/04/16 06:27:11;;;;;;;21.52;14.20;;;9.30;99.10;;;;;;5058326;28;38016;-54
2022/04/16 06:29:38;;;;;;;20.15;13.93;;;9.40;99.20;;;;;;5058734;28;39091;-53
2022/04/16 06:32:07;;;;;;;21.98;14.73;;;9.30;99.20;;;;;;5057039;28;39007;-53
2022/04/16 06:34:34;;;;;;;22.00;15.10;;;9.30;99.20;;;;;;5057326;28;38216;-52
2022/04/16 06:37:02;;;;;;;20.95;14.30;;;9.40;99.30;;;;;;5058529;28;36891;-52
2022/04/16 06:39:30;;;;;;;22.67;14.63;;;9.40;99.50;;;;;;5059349;28;36722;-54
2022/04/16 06:41:57;;;;;;;23.20;14.30;;;9.50;99.40;;;;;;5058764;28;38958;-51
2022/04/16 06:44:25;;;;;;;19.73;13.07;;;9.60;99.10;;;;;;5058921;28;38382;-60
2022/04/16 06:46:55;;;;;;;19.52;13.30;;;9.70;98.80;;;;;;5059904;28;38537;-59
2022/04/16 06:49:25;;;;;;;18.75;12.30;;;10.00;98.70;;;;;;5059782;28;38203;-52
2022/04/16 06:51:53;;;;;;;19.42;13.35;;;10.40;98.20;;;;;;5059421;28;36448;-51
2022/04/16 06:54:20;;;;;;;19.15;12.05;;;10.80;97.70;;;;;;5057542;28;39294;-59
2022/04/16 06:56:49;;;;;;;18.75;12.10;;;11.10;96.90;;;;;;5056591;28;38309;-59
2022/04/16 06:59:16;;;;;;;18.75;12.10;;;11.40;96.00;;;;;;5057999;28;37607;-59
2022/04/16 07:01:43;;;;;;;20.60;12.52;;;11.60;96.00;;;;;;5056748;28;38316;-59
2022/04/16 07:04:11;;;;;;;17.83;11.70;;;11.80;95.20;;;;;;5058184;28;38942;-60
2022/04/16 07:06:39;;;;;;;15.73;11.52;;;11.90;94.30;;;;;;5058337;28;40108;-59
2022/04/16 07:09:07;;;;;;;20.00;12.05;;;11.80;93.70;;;;;;5057263;28;36274;-59
2022/04/16 07:11:35;;;;;;;17.90;11.27;;;11.90;93.60;;;;;;5056781;28;36363;-59
2022/04/16 07:14:03;;;;;;;17.42;11.57;;;12.00;94.00;;;;;;5055974;28;38192;-60
2022/04/16 07:16:30;;;;;;;18.52;11.93;;;12.10;93.50;;;;;;5057283;28;38000;-59
2022/04/16 07:18:58;;;;;;;16.08;10.57;;;12.40;93.20;;;;;;5057191;28;37185;-60
2022/04/16 07:21:26;;;;;;;14.75;10.35;;;12.50;92.10;;;;;;5058072;28;36256;-51
2022/04/16 07:23:53;;;;;;;16.67;10.82;;;12.60;91.40;;;;;;5056948;28;39113;-51
2022/04/16 07:26:20;;;;;;;19.08;11.32;;;12.60;91.10;;;;;;5056230;28;38712;-50
2022/04/16 07:28:47;;;;;;;18.75;11.27;;;12.70;90.80;;;;;;5056909;28;38478;-50
2022/04/16 07:31:16;;;;;;;13.75;9.70;;;12.80;90.70;;;;;;5056385;28;38820;-49
2022/04/16 07:33:43;;;;;;;15.75;10.82;;;12.90;90.40;;;;;;5060965;28;39073;-52
2022/04/16 07:36:11;;;;;;;15.73;9.20;;;13.00;90.50;;;;;;5060922;28;37700;-50
2022/04/16 07:38:43;;;;;;;15.05;9.63;;;13.10;88.80;;;;;;5059809;28;36705;-53
2022/04/16 07:41:10;;;;;;;13.88;8.68;;;13.20;87.60;;;;;;5061438;28;36541;-53
2022/04/16 07:43:38;;;;;;;15.15;9.07;;;13.30;87.30;;;;;;5061051;28;38709;-51
2022/04/16 07:46:05;;;;;;;15.85;8.70;;;13.40;84.80;;;;;;5059637;28;37696;-51
2022/04/16 07:48:34;;;;;;;14.77;8.85;;;13.70;82.80;;;;;;5062111;28;36357;-60
2022/04/16 07:51:01;;;;;;;14.15;8.43;;;14.10;78.10;;;;;;5060974;28;36535;-59
2022/04/16 07:53:30;;;;;;;11.43;7.20;;;14.60;74.30;;;;;;5056680;28;37615;-60
2022/04/16 07:55:58;;;;;;;14.15;8.13;;;15.20;70.70;;;;;;5059397;28;37420;-59
2022/04/16 07:58:25;;;;;;;13.48;7.78;;;15.60;69.10;;;;;;5061388;28;37655;-60
2022/04/16 08:00:52;;;;;;;15.65;8.70;;;15.60;67.60;;;;;;5060145;28;38773;-60
2022/04/16 08:03:19;;;;;;;11.63;7.20;;;15.40;67.60;;;;;;5057470;28;37553;-59
2022/04/16 08:05:48;;;;;;;11.25;7.63;;;15.20;68.00;;;;;;5059478;28;38976;-51
2022/04/16 08:08:16;;;;;;;11.07;7.10;;;15.00;67.60;;;;;;5060609;28;37101;-51
2022/04/16 08:10:43;;;;;;;13.52;7.70;;;14.80;69.00;;;;;;5060673;28;37257;-52
2022/04/16 08:13:11;;;;;;;12.50;7.07;;;14.70;68.90;;;;;;5060773;28;37811;-52
2022/04/16 08:15:38;;;;;;;11.95;5.93;;;14.70;68.30;;;;;;5056083;28;39381;-52
2022/04/16 08:18:07;;;;;;;11.65;6.65;;;14.60;67.60;;;;;;5058408;28;35471;-51
2022/04/16 08:20:34;;;;;;;10.40;6.30;;;14.50;67.00;;;;;;5059583;28;37600;-52
2022/04/16 08:23:06;;;;;;;11.38;6.70;;;14.30;66.60;;;;;;5058819;28;39045;-59
2022/04/16 08:25:46;;;;;;;14.90;7.85;;;14.30;65.90;;;;;;5058688;28;37682;-52
2022/04/16 08:28:14;;;;;;;10.50;6.25;;;14.40;67.60;;;;;;5059986;28;36023;-52
2022/04/16 08:30:42;;;;;;;11.27;6.60;;;14.50;66.50;;;;;;5057085;28;37341;-51
2022/04/16 08:33:15;;;;;;;12.27;6.93;;;14.60;65.70;;;;;;5060541;28;38332;-51
2022/04/16 08:35:43;;;;;;;9.52;5.55;;;14.70;66.30;;;;;;5062134;28;37802;-52
2022/04/16 08:38:16;;;;;;;13.30;6.30;;;14.80;65.50;;;;;;5059931;28;37147;-51
2022/04/16 08:40:43;;;;;;;9.50;5.03;;;14.80;64.30;;;;;;5060469;28;40444;-51
2022/04/16 08:43:11;;;;;;;10.02;4.00;;;15.00;63.30;;;;;;5058188;28;38748;-51
2022/04/16 08:45:39;;;;;;;6.43;2.90;;;15.10;61.30;;;;;;5059530;28;37158;-53
2022/04/16 08:48:10;;;;;;;6.13;2.35;;;15.30;58.00;;;;;;5059651;28;35862;-56
2022/04/16 08:50:37;;;;;;;5.78;2.45;;;15.20;53.80;;;;;;5059497;28;37515;-60
2022/04/16 08:53:05;;;;;;;6.57;2.75;;;15.10;53.30;;;;;;5060083;28;38206;-60
2022/04/16 08:55:37;;;;;;;6.90;1.77;;;15.10;52.80;;;;;;5060206;28;36529;-59
2022/04/16 08:58:05;;;;;;;7.97;2.20;;;15.00;52.60;;;;;;5060555;28;35801;-60
2022/04/16 09:00:32;;;;;;;4.60;1.80;;;15.10;52.20;;;;;;5060772;28;37716;-55
2022/04/16 09:03:05;;;;;;;4.70;1.90;;;15.20;50.00;;;;;;5059739;28;38775;-53
2022/04/16 09:05:32;;;;;;;5.28;1.95;;;15.30;49.80;;;;;;5059732;28;38088;-52
2022/04/16 09:08:02;;;;;;;3.17;1.55;;;15.30;50.00;;;;;;5058252;28;38206;-50
2022/04/16 09:10:32;;;;;;;4.03;1.67;;;15.30;50.70;;;;;;5059629;28;37129;-60
2022/04/16 09:13:02;;;;;;;5.35;2.22;;;15.40;50.40;;;;;;5060182;28;38927;-59
2022/04/16 09:15:30;;;;;;;4.38;1.75;;;15.50;49.90;;;;;;5059983;28;40184;-59
2022/04/16 09:18:01;;;;;;;5.28;1.63;;;15.60;50.40;;;;;;5059900;28;37592;-60
2022/04/16 09:20:33;;;;;;;4.05;1.80;;;15.70;50.50;;;;;;5059944;28;37371;-59
2022/04/16 09:23:02;;;;;;;3.92;1.60;;;16.00;49.60;;;;;;5060957;28;39090;-59
2022/04/16 09:25:31;;;;;;;5.40;1.25;;;16.00;47.60;;;;;;5059872;28;38473;-59
2022/04/16 09:28:06;;;;;;;2.20;1.23;;;15.90;46.50;;;;;;5059749;28;35358;-60
2022/04/16 09:30:34;;;;;;;2.95;1.40;;;16.00;45.80;;;;;;5060341;28;37500;-60
2022/04/16 09:33:05;;;;;;;3.78;1.33;;;15.90;46.00;;;;;;5058542;28;36981;-53
2022/04/16 09:35:35;;;;;;;3.33;1.38;;;15.70;46.40;;;;;;5058562;28;37402;-59
2022/04/16 09:38:04;;;;;;;5.28;1.70;;;15.70;45.90;;;;;;5057531;28;37423;-59
2022/04/16 09:40:32;;;;;;;4.57;1.70;;;15.80;45.20;;;;;;5057203;28;37181;-60
2022/04/16 09:43:03;;;;;;;4.03;1.35;;;15.90;46.00;;;;;;5057547;28;38639;-59
2022/04/16 09:45:31;;;;;;;3.75;1.38;;;16.00;46.00;;;;;;5057440;28;41305;-59
2022/04/16 09:47:59;;;;;;;3.35;1.48;;;16.10;46.60;;;;;;5059928;28;35307;-59
2022/04/16 09:50:32;;;;;;;3.28;1.30;;;16.30;46.50;;;;;;5059378;28;36484;-53
2022/04/16 09:53:02;;;;;;;4.60;1.17;;;16.40;47.00;;;;;;5056745;28;38054;-59
2022/04/16 09:55:30;;;;;;;4.32;1.23;;;16.50;46.30;;;;;;5044404;28;37979;-59
2022/04/16 09:57:59;;;;;;;3.90;1.33;;;16.40;44.80;;;;;;5055080;28;37382;-60
2022/04/16 10:00:29;;;;;;;3.80;1.40;;;16.50;44.60;;;;;;5054613;28;36891;-59
2022/04/16 10:02:56;;;;;;;3.22;1.30;;;16.50;44.00;;;;;;5053069;28;38699;-60
2022/04/16 10:05:24;;;;;;;4.18;1.45;;;16.50;44.00;;;;;;5057927;28;37952;-60
2022/04/16 10:07:53;;;;;;;4.40;1.40;;;16.40;43.90;;;;;;5057016;28;37479;-60
2022/04/16 10:10:25;;;;;;;5.05;1.50;;;16.40;43.40;;;;;;5058090;28;37214;-60
2022/04/16 10:13:08;;;;;;;4.35;1.60;;;16.40;44.70;;;;;;5056189;28;38388;-52
2022/04/16 10:16:04;;;;;;;4.97;1.33;;;16.50;44.60;;;;;;5057704;28;38451;-52
2022/04/16 10:18:35;;;;;;;4.65;1.40;;;16.50;42.90;;;;;;5059616;28;36661;-59
2022/04/16 10:21:03;;;;;;;3.88;1.50;;;16.50;43.80;;;;;;5059583;28;37516;-60
2022/04/16 10:23:32;;;;;;;6.47;1.30;;;16.40;43.90;;;;;;5059477;28;38133;-59
2022/04/16 10:26:04;;;;;;;3.63;1.20;;;16.50;44.30;;;;;;5057124;28;37989;-60
2022/04/16 10:28:39;;;;;;;3.60;1.15;;;16.60;43.90;;;;;;5059593;28;36651;-60
2022/04/16 10:31:20;;;;;;;4.38;1.30;;;16.60;42.30;;;;;;5060849;28;37203;-60
2022/04/16 10:34:01;;;;;;;1.08;0.57;;;16.70;42.70;;;;;;5058995;28;38072;-60
2022/04/16 10:36:32;;;;;;;1.60;0.63;;;16.70;41.10;;;;;;5059221;28;36579;-60
2022/04/16 10:39:00;;;;;;;2.00;0.82;;;16.80;40.90;;;;;;5056096;28;36270;-60
2022/04/16 10:41:29;;;;;;;2.83;0.90;;;16.80;39.30;;;;;;5054033;28;37423;-59
2022/04/16 10:43:59;;;;;;;3.08;1.10;;;16.70;39.70;;;;;;5057626;28;39824;-59
2022/04/16 10:46:44;;;;;;;3.20;0.85;;;16.70;40.80;;;;;;5057752;28;39170;-59
2022/04/16 10:49:12;;;;;;;2.38;1.00;;;16.80;41.20;;;;;;5058276;28;35392;-59
2022/04/16 10:51:42;;;;;;;3.30;0.80;;;16.80;39.60;;;;;;5060821;28;36340;-59
2022/04/16 10:54:10;;;;;;;1.90;0.70;;;16.70;38.20;;;;;;5060874;28;38042;-59
2022/04/16 10:56:41;;;;;;;1.58;0.75;;;16.80;38.10;;;;;;5060134;28;39082;-59
2022/04/16 10:59:12;;;;;;;2.95;0.63;;;16.80;38.50;;;;;;5059906;28;36482;-59
2022/04/16 11:01:52;;;;;;;1.13;0.68;;;16.70;36.80;;;;;;5058576;28;37667;-59
2022/04/16 11:04:19;;;;;;;2.03;0.77;;;16.80;38.80;;;;;;5058261;28;38246;-59
2022/04/16 11:06:51;;;;;;;2.85;0.80;;;16.70;38.30;;;;;;5059875;28;38576;-59
2022/04/16 11:09:19;;;;;;;1.15;0.60;;;16.80;38.80;;;;;;5062950;28;36458;-59
2022/04/16 11:11:52;;;;;;;2.03;0.73;;;16.80;38.40;;;;;;5063623;28;37583;-59
2022/04/16 11:14:20;;;;;;;2.42;0.65;;;16.80;38.30;;;;;;5063095;28;38522;-59
2022/04/16 11:16:49;;;;;;;2.45;0.65;;;16.80;38.10;;;;;;5063883;28;38238;-59
2022/04/16 11:19:17;;;;;;;0.90;0.60;;;16.70;37.50;;;;;;5062149;28;36502;-60
2022/04/16 11:21:45;;;;;;;1.92;0.70;;;16.60;36.50;;;;;;5062918;28;37811;-59
2022/04/16 11:24:14;;;;;;;2.50;0.80;;;16.40;36.00;;;;;;5062636;28;37193;-60
2022/04/16 11:34:59;;;;;;;1.48;0.60;;;16.40;37.10;;;;;;5062500;28;38283;-62
2022/04/16 11:37:26;;;;;;;13.88;0.85;;;16.40;36.10;;;;;;5061142;28;39506;-59
2022/04/16 11:40:00;;;;;;;1.52;0.60;;;16.30;36.00;;;;;;5062941;28;37252;-60
2022/04/16 11:42:29;;;;;;;3.35;0.90;;;16.40;36.30;;;;;;5061123;28;38761;-59
2022/04/16 11:44:57;;;;;;;1.25;0.68;;;16.40;35.90;;;;;;5062579;28;38554;-59
2022/04/16 11:47:27;;;;;;;1.35;0.70;;;16.40;36.50;;;;;;5061981;28;38553;-59
2022/04/16 11:49:56;;;;;;;2.22;0.93;;;16.40;37.60;;;;;;5062467;28;37343;-59
2022/04/16 11:52:24;;;;;;;4.03;1.00;;;16.30;38.10;;;;;;5062776;28;37507;-59
2022/04/16 11:55:01;;;;;;;2.47;0.60;;;16.30;38.80;;;;;;5061878;28;37157;-61
2022/04/16 11:57:28;;;;;;;2.65;0.80;;;16.20;35.90;;;;;;5062179;28;37896;-60
2022/04/16 12:00:00;;;;;;;1.45;0.70;;;16.10;36.80;;;;;;5062853;28;36508;-60
2022/04/16 12:02:33;;;;;;;2.40;0.70;;;16.10;36.80;;;;;;5061793;28;37356;-51
2022/04/16 12:05:12;;;;;;;2.08;0.68;;;16.00;36.10;;;;;;5060997;28;37245;-53
2022/04/16 12:07:41;;;;;;;2.80;0.90;;;15.80;36.40;;;;;;5061324;28;37737;-52
2022/04/16 12:10:13;;;;;;;4.10;0.80;;;15.80;37.00;;;;;;5059636;28;36963;-52
2022/04/16 12:12:47;;;;;;;1.50;0.60;;;15.80;37.80;;;;;;5060352;28;41258;-50
2022/04/16 12:15:22;;;;;;;3.00;0.77;;;15.60;36.30;;;;;;5060278;28;39202;-51
2022/04/16 12:17:52;;;;;;;1.58;0.50;;;15.70;37.50;;;;;;5061279;28;39087;-50
2022/04/16 12:20:21;;;;;;;2.15;0.70;;;15.60;37.30;;;;;;5059802;28;36509;-53
2022/04/16 12:22:51;;;;;;;2.03;0.85;;;15.60;37.90;;;;;;5061794;28;37689;-52
2022/04/16 12:25:20;;;;;;;1.83;0.70;;;15.60;37.70;;;;;;5061863;28;37857;-54
2022/04/16 12:27:48;;;;;;;3.03;0.80;;;15.50;38.00;;;;;;5062589;28;36345;-53
2022/04/16 12:30:19;;;;;;;1.50;0.55;;;15.50;38.40;;;;;;5062540;28;36902;-59
2022/04/16 12:33:01;;;;;;;3.88;0.68;;;15.40;37.50;;;;;;5062162;28;37770;-59
2022/04/16 12:35:30;;;;;;;3.03;0.93;;;15.40;38.00;;;;;;5061575;28;38093;-60
2022/04/16 12:37:58;;;;;;;1.75;0.73;;;15.40;37.30;;;;;;5061944;28;39091;-59
2022/04/16 12:40:27;;;;;;;1.20;0.63;;;15.30;37.10;;;;;;5062291;28;38026;-59
2022/04/16 12:42:56;;;;;;;1.80;1.00;;;15.30;37.40;;;;;;5060846;28;37335;-48
2022/04/16 12:45:24;;;;;;;2.33;0.85;;;15.20;37.90;;;;;;5060542;28;43041;-51
2022/04/16 12:47:52;;;;;;;3.55;0.95;;;15.20;37.70;;;;;;5061728;28;39217;-51
2022/04/16 12:50:22;;;;;;;2.85;1.33;;;15.20;38.30;;;;;;5062035;28;37394;-51
2022/04/16 12:52:49;;;;;;;2.45;0.82;;;15.20;38.90;;;;;;5062271;28;38273;-53
2022/04/16 12:55:17;;;;;;;4.00;0.70;;;15.20;39.40;;;;;;5061741;28;38319;-48
2022/04/16 12:57:44;;;;;;;2.13;0.63;;;15.20;38.90;;;;;;5061754;28;36705;-52
2022/04/16 13:00:14;;;;;;;2.40;0.80;;;15.20;38.30;;;;;;5062758;28;36343;-48
2022/04/16 13:02:44;;;;;;;2.22;0.70;;;15.10;38.20;;;;;;5062486;28;37263;-50
2022/04/16 13:05:13;;;;;;;3.85;0.90;;;15.10;38.00;;;;;;5060559;28;38469;-50
2022/04/16 13:07:42;;;;;;;2.72;1.50;;;15.00;37.70;;;;;;5061248;28;39270;-51
2022/04/16 13:10:10;;;;;;;1.73;0.80;;;15.00;38.90;;;;;;5061139;28;36597;-52